Time;durP1;ratioP1;P1;durP2;ratioP2;P2;SDS_P1;SDS_P2;PMS_P1;PMS_P2;Temp;Humidity;BMP_temperature;BMP_pressure;BME280_temperature;BME280_humidity;BME280_pressure;Samples;Min_cycle;Max_cycle;Signal;HPM_P1;HPM_P2
2024/01/04 00:00:32;;;;;;;2.05;0.60;;;;;;;;;;5085755;28;20044;-77
2024/01/04 00:02:58;;;;;;;1.60;0.60;;;;;;;;;;5079376;28;20032;-77
2024/01/04 00:05:25;;;;;;;4.45;0.63;;;;;;;;;;5074088;28;20039;-78
2024/01/04 00:07:51;;;;;;;1.65;0.55;;;;;;;;;;5073347;28;20483;-77
2024/01/04 00:10:17;;;;;;;6.05;0.90;;;;;;;;;;5077432;28;20521;-77
2024/01/04 00:12:48;;;;;;;5.47;0.60;;;;;;;;;;5085378;28;20046;-77
2024/01/04 00:15:15;;;;;;;3.80;0.80;;;;;;;;;;5090492;28;20082;-79
2024/01/04 00:17:41;;;;;;;3.60;0.60;;;;;;;;;;5085564;28;20043;-77
2024/01/04 00:20:09;;;;;;;3.17;0.63;;;;;;;;;;5070242;28;20035;-77
2024/01/04 00:22:35;;;;;;;6.32;0.95;;;;;;;;;;5082642;28;20041;-77
2024/01/04 00:25:01;;;;;;;1.85;0.50;;;;;;;;;;5083069;28;20548;-77
2024/01/04 00:27:27;;;;;;;1.20;0.60;;;;;;;;;;5079590;28;20036;-77
2024/01/04 00:29:53;;;;;;;0.63;0.43;;;;;;;;;;5084351;28;20161;-77
2024/01/04 00:32:20;;;;;;;2.63;0.65;;;;;;;;;;5084924;28;20032;-77
2024/01/04 00:34:46;;;;;;;1.75;0.50;;;;;;;;;;5067469;28;20044;-78
2024/01/04 00:37:12;;;;;;;2.88;0.60;;;;;;;;;;5077306;28;20047;-77
2024/01/04 00:39:38;;;;;;;3.38;0.80;;;;;;;;;;5053399;28;20040;-77
2024/01/04 00:42:04;;;;;;;3.13;0.57;;;;;;;;;;5072459;28;21707;-78
2024/01/04 00:44:30;;;;;;;2.45;0.60;;;;;;;;;;5069939;28;20039;-77
2024/01/04 00:46:56;;;;;;;5.72;0.65;;;;;;;;;;5069006;28;20650;-77
2024/01/04 00:49:22;;;;;;;3.65;1.27;;;;;;;;;;5080671;28;20040;-77
2024/01/04 00:51:48;;;;;;;5.85;0.85;;;;;;;;;;5065799;28;20029;-77
2024/01/04 00:54:15;;;;;;;4.55;0.98;;;;;;;;;;5064886;28;20036;-77
2024/01/04 00:56:41;;;;;;;6.18;2.58;;;;;;;;;;5083716;28;20391;-77
2024/01/04 00:59:07;;;;;;;1.15;0.68;;;;;;;;;;5083270;28;20380;-76
2024/01/04 01:01:33;;;;;;;2.95;0.60;;;;;;;;;;5085745;28;20446;-77
2024/01/04 01:03:59;;;;;;;5.38;0.82;;;;;;;;;;5081121;28;20090;-77
2024/01/04 01:06:25;;;;;;;6.22;0.70;;;;;;;;;;5066270;28;20032;-78
2024/01/04 01:08:51;;;;;;;1.90;0.52;;;;;;;;;;5067102;28;20032;-77
2024/01/04 01:11:17;;;;;;;2.13;0.70;;;;;;;;;;5071043;28;20035;-77
2024/01/04 01:13:43;;;;;;;5.43;0.70;;;;;;;;;;5070585;28;20047;-82
2024/01/04 01:16:10;;;;;;;3.08;0.50;;;;;;;;;;5083393;28;20035;-80
2024/01/04 01:18:38;;;;;;;2.65;0.77;;;;;;;;;;5061169;28;20047;-82
2024/01/04 01:21:04;;;;;;;1.88;0.60;;;;;;;;;;5077212;28;20040;-82
2024/01/04 01:23:30;;;;;;;2.38;0.50;;;;;;;;;;5081326;28;20036;-79
2024/01/04 01:25:56;;;;;;;3.22;0.70;;;;;;;;;;5064489;28;20070;-82
2024/01/04 01:28:22;;;;;;;2.47;0.60;;;;;;;;;;5081532;28;20040;-82
2024/01/04 01:30:48;;;;;;;2.85;0.60;;;;;;;;;;5083504;28;20043;-81
2024/01/04 01:33:14;;;;;;;9.38;0.70;;;;;;;;;;5092574;27;20593;-81
2024/01/04 01:35:40;;;;;;;2.97;0.70;;;;;;;;;;5083260;28;20148;-82
2024/01/04 01:38:07;;;;;;;2.65;0.73;;;;;;;;;;5084969;28;20035;-82
2024/01/04 01:40:33;;;;;;;2.95;0.57;;;;;;;;;;5073393;28;20047;-82
2024/01/04 01:42:59;;;;;;;1.50;0.40;;;;;;;;;;5085162;28;20041;-82
2024/01/04 01:45:25;;;;;;;2.92;0.93;;;;;;;;;;5086163;28;20499;-80
2024/01/04 01:47:51;;;;;;;2.08;0.80;;;;;;;;;;5067774;28;20389;-81
2024/01/04 01:50:21;;;;;;;3.63;1.00;;;;;;;;;;5085575;28;20047;-81
2024/01/04 01:52:53;;;;;;;2.08;0.60;;;;;;;;;;5073132;28;20398;-77
2024/01/04 01:55:20;;;;;;;2.28;0.50;;;;;;;;;;5087674;28;20131;-80
2024/01/04 01:57:46;;;;;;;2.83;0.90;;;;;;;;;;5076563;28;20040;-80
2024/01/04 02:00:13;;;;;;;1.88;0.63;;;;;;;;;;5065315;28;20044;-81
2024/01/04 02:02:39;;;;;;;1.38;0.52;;;;;;;;;;5051774;28;20039;-82
2024/01/04 02:05:07;;;;;;;3.38;0.68;;;;;;;;;;5070641;28;20039;-81
2024/01/04 02:07:33;;;;;;;3.80;0.82;;;;;;;;;;5071769;28;20039;-81
2024/01/04 02:10:00;;;;;;;3.97;0.75;;;;;;;;;;5083927;28;20054;-82
2024/01/04 02:12:26;;;;;;;4.65;0.80;;;;;;;;;;5058269;28;20503;-80
2024/01/04 02:14:54;;;;;;;4.00;0.60;;;;;;;;;;5053157;28;20036;-81
2024/01/04 02:17:24;;;;;;;3.75;1.60;;;;;;;;;;5084336;28;20044;-79
2024/01/04 02:19:50;;;;;;;3.97;0.82;;;;;;;;;;5074306;28;20036;-82
2024/01/04 02:22:17;;;;;;;3.20;0.65;;;;;;;;;;5066850;28;20040;-76
2024/01/04 02:24:43;;;;;;;5.63;0.70;;;;;;;;;;5080088;28;20093;-77
2024/01/04 02:27:10;;;;;;;4.40;1.05;;;;;;;;;;5072630;28;20044;-76
2024/01/04 02:29:36;;;;;;;5.15;0.73;;;;;;;;;;5083174;28;20100;-76
2024/01/04 02:32:03;;;;;;;2.50;0.75;;;;;;;;;;5084280;28;20036;-76
2024/01/04 02:34:30;;;;;;;2.80;0.73;;;;;;;;;;5079845;28;20115;-77
2024/01/04 02:36:56;;;;;;;4.20;0.68;;;;;;;;;;5080881;28;20051;-76
2024/01/04 02:39:22;;;;;;;3.35;1.40;;;;;;;;;;5053242;28;20052;-76
2024/01/04 02:41:48;;;;;;;3.72;0.50;;;;;;;;;;5084776;28;20154;-76
2024/01/04 02:44:14;;;;;;;1.92;0.55;;;;;;;;;;5094540;28;20032;-76
2024/01/04 02:46:40;;;;;;;3.45;0.70;;;;;;;;;;5078044;28;20056;-75
2024/01/04 02:49:07;;;;;;;5.15;0.95;;;;;;;;;;5065063;28;20059;-78
2024/01/04 02:51:33;;;;;;;3.25;0.60;;;;;;;;;;5066708;28;20531;-76
2024/01/04 02:53:59;;;;;;;2.70;0.70;;;;;;;;;;5070522;28;20507;-76
2024/01/04 02:56:26;;;;;;;4.70;0.73;;;;;;;;;;5080153;28;20032;-76
2024/01/04 02:58:52;;;;;;;1.23;0.57;;;;;;;;;;5050618;28;20086;-76
2024/01/04 03:01:21;;;;;;;1.65;0.55;;;;;;;;;;5081440;28;20059;-76
2024/01/04 03:03:51;;;;;;;3.15;0.65;;;;;;;;;;5068801;28;20072;-77
2024/01/04 03:06:27;;;;;;;2.33;0.45;;;;;;;;;;5086321;28;20090;-76
2024/01/04 03:08:53;;;;;;;1.10;0.50;;;;;;;;;;5057059;28;20039;-78
2024/01/04 03:11:20;;;;;;;1.52;0.50;;;;;;;;;;5085708;28;20388;-75
2024/01/04 03:13:49;;;;;;;3.80;0.98;;;;;;;;;;5084077;28;20097;-74
2024/01/04 03:16:15;;;;;;;2.35;0.68;;;;;;;;;;5066042;28;20040;-74
2024/01/04 03:18:41;;;;;;;2.72;0.75;;;;;;;;;;5084398;28;20037;-74
2024/01/04 03:21:08;;;;;;;2.78;0.77;;;;;;;;;;5084898;28;20504;-75
2024/01/04 03:23:35;;;;;;;5.45;0.80;;;;;;;;;;5086381;28;20039;-74
2024/01/04 03:26:01;;;;;;;2.97;0.77;;;;;;;;;;5083215;28;20479;-74
2024/01/04 03:28:27;;;;;;;3.67;0.75;;;;;;;;;;5088932;28;20090;-74
2024/01/04 03:30:53;;;;;;;5.18;0.80;;;;;;;;;;5067300;28;20079;-76
2024/01/04 03:33:19;;;;;;;3.63;0.45;;;;;;;;;;5086035;28;20507;-76
2024/01/04 03:35:45;;;;;;;1.73;0.50;;;;;;;;;;5066577;28;20050;-76
2024/01/04 03:38:11;;;;;;;1.92;0.73;;;;;;;;;;5084622;28;20036;-76
2024/01/04 03:40:37;;;;;;;4.35;0.65;;;;;;;;;;5080735;28;20051;-75
2024/01/04 03:43:04;;;;;;;3.17;0.60;;;;;;;;;;5091721;28;20040;-78
2024/01/04 03:45:33;;;;;;;3.42;0.70;;;;;;;;;;5074263;28;20487;-76
2024/01/04 03:48:00;;;;;;;4.30;0.90;;;;;;;;;;5073634;28;20048;-75
2024/01/04 03:50:26;;;;;;;3.35;0.52;;;;;;;;;;5090740;28;20074;-76
2024/01/04 03:52:52;;;;;;;11.75;1.35;;;;;;;;;;5075783;28;20040;-77
2024/01/04 03:55:18;;;;;;;4.53;0.70;;;;;;;;;;5070141;28;20056;-76
2024/01/04 03:57:45;;;;;;;4.80;0.57;;;;;;;;;;5075584;28;20415;-76
2024/01/04 04:00:12;;;;;;;8.05;0.90;;;;;;;;;;5087041;28;20036;-75
2024/01/04 04:02:38;;;;;;;1.77;0.60;;;;;;;;;;5073036;28;20071;-78
2024/01/04 04:05:04;;;;;;;2.38;0.77;;;;;;;;;;5095562;28;20114;-76
2024/01/04 04:07:30;;;;;;;4.68;0.80;;;;;;;;;;5076189;28;20070;-76
2024/01/04 04:09:56;;;;;;;5.63;0.70;;;;;;;;;;5073764;28;20036;-78
2024/01/04 04:12:22;;;;;;;3.00;1.05;;;;;;;;;;5055990;28;20045;-77
2024/01/04 04:14:49;;;;;;;1.88;0.40;;;;;;;;;;5079378;28;20112;-76
2024/01/04 04:17:20;;;;;;;3.38;0.60;;;;;;;;;;5090343;28;20044;-77
2024/01/04 04:19:46;;;;;;;2.88;0.65;;;;;;;;;;5074506;28;20047;-76
2024/01/04 04:22:12;;;;;;;3.22;1.00;;;;;;;;;;5100096;28;20036;-76
2024/01/04 04:24:38;;;;;;;2.50;0.75;;;;;;;;;;5087455;28;20158;-76
2024/01/04 04:27:04;;;;;;;0.75;0.50;;;;;;;;;;5059327;28;20043;-76
2024/01/04 04:29:30;;;;;;;5.30;0.77;;;;;;;;;;5078328;28;20074;-76
2024/01/04 04:31:56;;;;;;;1.90;0.90;;;;;;;;;;5091532;28;20036;-76
2024/01/04 04:34:22;;;;;;;4.20;0.68;;;;;;;;;;5091720;28;20040;-77
2024/01/04 04:36:49;;;;;;;2.17;0.50;;;;;;;;;;5091484;28;20032;-76
2024/01/04 04:39:15;;;;;;;5.00;0.60;;;;;;;;;;5060123;28;20048;-76
2024/01/04 04:41:41;;;;;;;2.47;0.70;;;;;;;;;;5081445;28;20043;-76
2024/01/04 04:44:07;;;;;;;1.90;0.70;;;;;;;;;;5072031;28;20044;-74
2024/01/04 04:46:33;;;;;;;7.35;1.48;;;;;;;;;;5064192;28;21096;-73
2024/01/04 04:48:59;;;;;;;1.20;0.50;;;;;;;;;;5083399;28;20151;-77
2024/01/04 04:51:25;;;;;;;2.72;0.60;;;;;;;;;;5066260;28;20043;-74
2024/01/04 04:53:52;;;;;;;3.20;0.70;;;;;;;;;;5068024;28;20064;-73
2024/01/04 04:56:18;;;;;;;3.60;0.88;;;;;;;;;;5065690;28;20043;-76
2024/01/04 04:58:44;;;;;;;1.73;0.60;;;;;;;;;;5084845;28;20093;-75
2024/01/04 05:01:10;;;;;;;1.05;0.50;;;;;;;;;;5084315;28;20073;-77
2024/01/04 05:03:37;;;;;;;1.17;0.52;;;;;;;;;;5085740;28;20046;-74
2024/01/04 05:06:03;;;;;;;1.70;0.80;;;;;;;;;;5084223;28;20142;-76
2024/01/04 05:08:29;;;;;;;2.92;0.60;;;;;;;;;;5059624;28;20407;-77
2024/01/04 05:10:56;;;;;;;2.30;0.60;;;;;;;;;;5075356;28;21832;-76
2024/01/04 05:13:22;;;;;;;2.78;0.52;;;;;;;;;;5077604;28;20071;-76
2024/01/04 05:15:48;;;;;;;1.88;0.68;;;;;;;;;;5073548;28;20032;-75
2024/01/04 05:18:14;;;;;;;3.30;0.90;;;;;;;;;;5065091;28;20514;-75
2024/01/04 05:20:40;;;;;;;3.75;0.52;;;;;;;;;;5068769;28;20044;-76
2024/01/04 05:23:07;;;;;;;3.25;1.00;;;;;;;;;;5079925;28;20450;-73
2024/01/04 05:25:33;;;;;;;3.75;0.68;;;;;;;;;;5061552;28;20039;-74
2024/01/04 05:27:59;;;;;;;2.78;0.55;;;;;;;;;;5085035;28;20035;-74
2024/01/04 05:30:25;;;;;;;1.48;1.02;;;;;;;;;;5065301;28;20048;-77
2024/01/04 05:32:52;;;;;;;3.40;0.70;;;;;;;;;;5064249;28;20024;-73
2024/01/04 05:35:18;;;;;;;2.90;0.50;;;;;;;;;;5051738;28;20088;-75
2024/01/04 05:37:44;;;;;;;2.88;0.75;;;;;;;;;;5082012;28;20040;-74
2024/01/04 05:40:10;;;;;;;3.30;0.63;;;;;;;;;;5081206;28;20086;-75
2024/01/04 05:42:36;;;;;;;1.17;0.77;;;;;;;;;;5076220;28;20035;-75
2024/01/04 05:45:04;;;;;;;2.88;0.75;;;;;;;;;;5069270;28;20120;-74
2024/01/04 05:47:30;;;;;;;2.80;0.70;;;;;;;;;;5075605;28;20050;-75
2024/01/04 05:49:57;;;;;;;1.90;0.70;;;;;;;;;;5080520;28;20068;-75
2024/01/04 05:52:23;;;;;;;1.67;0.70;;;;;;;;;;5081023;28;20036;-75
2024/01/04 05:54:49;;;;;;;2.67;0.70;;;;;;;;;;5076688;28;20471;-83
2024/01/04 05:57:17;;;;;;;3.63;0.60;;;;;;;;;;5053048;28;20519;-80
2024/01/04 05:59:43;;;;;;;2.20;0.57;;;;;;;;;;5080822;28;20499;-80
2024/01/04 06:02:09;;;;;;;5.10;0.93;;;;;;;;;;5069929;28;20039;-81
2024/01/04 06:04:35;;;;;;;1.67;0.60;;;;;;;;;;5080931;28;20116;-81
2024/01/04 06:07:01;;;;;;;3.60;0.60;;;;;;;;;;5053165;28;20032;-81
2024/01/04 06:09:27;;;;;;;1.00;0.50;;;;;;;;;;5073512;28;20044;-81
2024/01/04 06:11:54;;;;;;;5.70;0.95;;;;;;;;;;5077441;28;20037;-81
2024/01/04 06:14:20;;;;;;;4.47;0.60;;;;;;;;;;5073569;28;20083;-81
2024/01/04 06:16:47;;;;;;;3.67;1.52;;;;;;;;;;5048405;28;20141;-80
2024/01/04 06:19:13;;;;;;;3.78;0.77;;;;;;;;;;5077495;28;20032;-81
2024/01/04 06:21:39;;;;;;;3.25;1.58;;;;;;;;;;5073773;28;20036;-77
2024/01/04 06:24:05;;;;;;;9.32;1.80;;;;;;;;;;5078168;28;20594;-81
2024/01/04 06:26:31;;;;;;;4.32;0.90;;;;;;;;;;5065878;28;20035;-76
2024/01/04 06:28:57;;;;;;;2.70;0.70;;;;;;;;;;5074106;28;20036;-82
2024/01/04 06:31:23;;;;;;;1.52;0.80;;;;;;;;;;5063762;28;20035;-81
2024/01/04 06:33:50;;;;;;;4.28;0.73;;;;;;;;;;5067223;28;20123;-80
2024/01/04 06:36:16;;;;;;;2.03;0.63;;;;;;;;;;5058366;28;20046;-81
2024/01/04 06:38:42;;;;;;;4.18;1.08;;;;;;;;;;5044003;28;20613;-79
2024/01/04 06:41:08;;;;;;;2.08;0.80;;;;;;;;;;5080457;28;20092;-80
2024/01/04 06:43:34;;;;;;;1.75;0.68;;;;;;;;;;5079118;28;20058;-81
2024/01/04 06:46:00;;;;;;;3.28;0.70;;;;;;;;;;5080315;28;20154;-82
2024/01/04 06:48:27;;;;;;;0.93;0.65;;;;;;;;;;5074620;28;20124;-82
2024/01/04 06:50:53;;;;;;;2.20;0.65;;;;;;;;;;5073558;28;20036;-80
2024/01/04 06:53:19;;;;;;;3.92;0.88;;;;;;;;;;5067986;28;20170;-82
2024/01/04 06:55:45;;;;;;;4.05;0.70;;;;;;;;;;5066691;28;20040;-81
2024/01/04 06:58:11;;;;;;;2.35;0.50;;;;;;;;;;5086354;28;20055;-81
2024/01/04 07:00:37;;;;;;;3.28;0.80;;;;;;;;;;5067514;28;20044;-80
2024/01/04 07:03:03;;;;;;;5.68;0.70;;;;;;;;;;5081747;28;20043;-78
2024/01/04 07:05:32;;;;;;;1.60;0.70;;;;;;;;;;5081414;28;20530;-75
2024/01/04 07:07:59;;;;;;;3.20;0.98;;;;;;;;;;5069172;28;20071;-76
2024/01/04 07:10:25;;;;;;;4.72;0.60;;;;;;;;;;5066645;28;20032;-73
2024/01/04 07:12:51;;;;;;;4.20;0.80;;;;;;;;;;5061533;28;20457;-75
2024/01/04 07:15:17;;;;;;;4.05;0.77;;;;;;;;;;5063210;28;20217;-75
2024/01/04 07:17:43;;;;;;;5.38;0.68;;;;;;;;;;5077541;28;20040;-75
2024/01/04 07:20:09;;;;;;;3.28;0.60;;;;;;;;;;5082200;28;20480;-75
2024/01/04 07:22:35;;;;;;;3.70;0.75;;;;;;;;;;5081496;28;20036;-75
2024/01/04 07:25:02;;;;;;;1.88;0.73;;;;;;;;;;5063510;28;20040;-74
2024/01/04 07:27:28;;;;;;;2.20;0.70;;;;;;;;;;5064755;28;20375;-74
2024/01/04 07:29:55;;;;;;;2.67;0.75;;;;;;;;;;5077543;28;20044;-74
2024/01/04 07:32:22;;;;;;;2.83;0.50;;;;;;;;;;5079579;28;20042;-74
2024/01/04 07:34:48;;;;;;;2.38;0.52;;;;;;;;;;5078987;28;20040;-74
2024/01/04 07:37:14;;;;;;;2.50;0.50;;;;;;;;;;5063832;28;20057;-75
2024/01/04 07:39:41;;;;;;;1.58;0.85;;;;;;;;;;5063915;28;20044;-75
2024/01/04 07:42:08;;;;;;;1.52;0.50;;;;;;;;;;5082028;28;20040;-74
2024/01/04 07:44:34;;;;;;;7.20;0.82;;;;;;;;;;5065746;28;20045;-74
2024/01/04 07:47:00;;;;;;;6.93;0.95;;;;;;;;;;5066597;28;20076;-75
2024/01/04 07:49:26;;;;;;;6.35;2.25;;;;;;;;;;5064014;28;20113;-74
2024/01/04 07:51:52;;;;;;;1.17;0.70;;;;;;;;;;5084395;28;20119;-74
2024/01/04 07:54:19;;;;;;;7.68;0.75;;;;;;;;;;5070257;28;20059;-74
2024/01/04 07:56:45;;;;;;;3.00;0.55;;;;;;;;;;5086051;28;20048;-74
2024/01/04 07:59:11;;;;;;;2.15;0.77;;;;;;;;;;5088091;28;20487;-74
2024/01/04 08:01:38;;;;;;;1.40;0.90;;;;;;;;;;5081326;28;20082;-76
2024/01/04 08:04:04;;;;;;;1.40;1.02;;;;;;;;;;5081690;28;20039;-74
2024/01/04 08:06:31;;;;;;;2.75;0.95;;;;;;;;;;5090004;28;20522;-74
2024/01/04 08:08:57;;;;;;;2.67;0.77;;;;;;;;;;5082715;28;20043;-74
2024/01/04 08:11:23;;;;;;;3.03;0.85;;;;;;;;;;5084920;28;20448;-76
2024/01/04 08:13:51;;;;;;;4.80;1.08;;;;;;;;;;5054323;28;20043;-74
2024/01/04 08:16:17;;;;;;;2.88;0.90;;;;;;;;;;5081752;28;20045;-75
2024/01/04 08:18:43;;;;;;;5.45;1.10;;;;;;;;;;5063510;28;20079;-75
2024/01/04 08:21:10;;;;;;;4.35;1.17;;;;;;;;;;5082411;28;20467;-74
2024/01/04 08:23:36;;;;;;;3.78;1.00;;;;;;;;;;5081715;28;20043;-74
2024/01/04 08:26:05;;;;;;;6.00;1.00;;;;;;;;;;5084160;28;20032;-74
2024/01/04 08:28:31;;;;;;;3.60;1.10;;;;;;;;;;5101062;27;20036;-74
2024/01/04 08:30:57;;;;;;;6.10;1.40;;;;;;;;;;5089099;28;20126;-74
2024/01/04 08:33:24;;;;;;;2.25;0.98;;;;;;;;;;5082561;28;20028;-75
2024/01/04 08:35:50;;;;;;;1.33;0.90;;;;;;;;;;5067813;28;20033;-75
2024/01/04 08:38:17;;;;;;;2.88;0.90;;;;;;;;;;5079715;28;20385;-81
2024/01/04 08:40:43;;;;;;;2.17;0.80;;;;;;;;;;5086115;28;20040;-81
2024/01/04 08:43:09;;;;;;;5.45;1.10;;;;;;;;;;5087089;28;20476;-81
2024/01/04 08:45:35;;;;;;;3.20;1.20;;;;;;;;;;5088220;28;20511;-82
2024/01/04 08:48:01;;;;;;;3.97;1.00;;;;;;;;;;5058245;28;20052;-82
2024/01/04 08:50:27;;;;;;;3.92;0.80;;;;;;;;;;5084037;28;20079;-81
2024/01/04 08:52:54;;;;;;;2.67;0.80;;;;;;;;;;5085982;28;20063;-82
2024/01/04 08:55:20;;;;;;;2.85;0.90;;;;;;;;;;5062680;28;20062;-80
2024/01/04 08:57:47;;;;;;;3.80;1.00;;;;;;;;;;5056349;28;20036;-82
2024/01/04 09:00:14;;;;;;;2.50;0.85;;;;;;;;;;5073725;28;20036;-82
2024/01/04 09:02:40;;;;;;;2.83;0.90;;;;;;;;;;5073671;28;20074;-75
2024/01/04 09:05:07;;;;;;;2.38;0.93;;;;;;;;;;5078186;28;20041;-76
2024/01/04 09:07:33;;;;;;;2.75;1.20;;;;;;;;;;5065778;28;20044;-77
2024/01/04 09:09:59;;;;;;;2.78;0.88;;;;;;;;;;5080964;28;20039;-76
2024/01/04 09:12:28;;;;;;;1.20;0.63;;;;;;;;;;5085459;28;20421;-76
2024/01/04 09:14:54;;;;;;;1.90;0.90;;;;;;;;;;5088901;28;20039;-77
2024/01/04 09:17:20;;;;;;;2.92;0.88;;;;;;;;;;5069332;28;20044;-77
2024/01/04 09:19:47;;;;;;;1.30;0.95;;;;;;;;;;5068274;28;20509;-77
2024/01/04 09:22:13;;;;;;;1.83;1.20;;;;;;;;;;5056241;28;20051;-77
2024/01/04 09:24:39;;;;;;;5.65;1.38;;;;;;;;;;5063584;28;20053;-85
2024/01/04 09:27:05;;;;;;;1.45;1.35;;;;;;;;;;5059749;28;20420;-87
2024/01/04 09:29:32;;;;;;;3.28;1.15;;;;;;;;;;5096047;28;20044;-83
2024/01/04 09:31:58;;;;;;;3.53;1.13;;;;;;;;;;5077203;28;20040;-82
2024/01/04 09:34:27;;;;;;;5.57;1.20;;;;;;;;;;5067390;28;20130;-83
2024/01/04 09:36:54;;;;;;;4.00;1.30;;;;;;;;;;5070862;28;20126;-84
2024/01/04 09:39:20;;;;;;;5.03;2.00;;;;;;;;;;5071602;28;20048;-85
2024/01/04 09:41:48;;;;;;;6.43;2.33;;;;;;;;;;5060615;28;20089;-85
2024/01/04 09:44:15;;;;;;;6.85;2.28;;;;;;;;;;5080994;28;20086;-81
2024/01/04 09:46:41;;;;;;;8.00;3.08;;;;;;;;;;5086511;28;20040;-82
2024/01/04 09:49:09;;;;;;;3.55;1.40;;;;;;;;;;5063891;28;20389;-79
2024/01/04 09:51:38;;;;;;;5.40;1.20;;;;;;;;;;5062360;28;20484;-79
2024/01/04 09:54:09;;;;;;;5.93;1.00;;;;;;;;;;5066349;28;20054;-80
2024/01/04 09:56:40;;;;;;;2.45;0.90;;;;;;;;;;5071270;28;20036;-85
2024/01/04 09:59:07;;;;;;;7.43;1.00;;;;;;;;;;5063278;28;20146;-84
2024/01/04 10:01:35;;;;;;;1.88;0.68;;;;;;;;;;5068503;28;20509;-82
2024/01/04 10:04:21;;;;;;;1.38;0.90;;;;;;;;;;5083325;28;20054;-81
2024/01/04 10:06:50;;;;;;;3.45;1.15;;;;;;;;;;5096402;28;20041;-84
2024/01/04 10:09:20;;;;;;;3.80;1.60;;;;;;;;;;5067005;28;20040;-85
2024/01/04 10:11:52;;;;;;;5.97;1.70;;;;;;;;;;5065185;28;20043;-83
2024/01/04 10:14:19;;;;;;;7.32;1.60;;;;;;;;;;5066088;28;20040;-80
2024/01/04 10:16:47;;;;;;;4.28;1.02;;;;;;;;;;5038584;28;20072;-82
2024/01/04 10:19:13;;;;;;;6.07;1.10;;;;;;;;;;5070161;28;20421;-83
2024/01/04 10:21:39;;;;;;;3.63;1.20;;;;;;;;;;5070130;28;20102;-81
2024/01/04 10:24:05;;;;;;;6.18;2.03;;;;;;;;;;5071917;28;20051;-84
2024/01/04 10:26:32;;;;;;;3.55;0.88;;;;;;;;;;5053386;28;20068;-85
2024/01/04 10:28:59;;;;;;;1.33;0.77;;;;;;;;;;5105782;27;20065;-84
2024/01/04 10:31:26;;;;;;;3.28;1.42;;;;;;;;;;5066121;28;20043;-84
2024/01/04 10:33:59;;;;;;;3.25;1.30;;;;;;;;;;5059902;28;20070;-84
2024/01/04 10:36:28;;;;;;;1.65;0.65;;;;;;;;;;5097703;28;20040;-83
2024/01/04 10:39:08;;;;;;;2.22;1.10;;;;;;;;;;5071271;28;20036;-84
2024/01/04 10:41:34;;;;;;;3.00;0.77;;;;;;;;;;5090102;28;20036;-82
2024/01/04 10:44:07;;;;;;;3.08;0.65;;;;;;;;;;5072898;28;20137;-83
2024/01/04 10:46:37;;;;;;;2.60;0.70;;;;;;;;;;5077834;28;20067;-83
2024/01/04 10:49:04;;;;;;;3.92;0.80;;;;;;;;;;5065268;28;20052;-83
2024/01/04 10:51:33;;;;;;;16.23;1.83;;;;;;;;;;5082894;28;20071;-84
2024/01/04 10:54:00;;;;;;;2.65;0.90;;;;;;;;;;5067837;28;20047;-83
2024/01/04 10:56:30;;;;;;;3.83;0.80;;;;;;;;;;5081049;28;20097;-83
2024/01/04 10:58:57;;;;;;;4.25;0.60;;;;;;;;;;5078053;28;20126;-84
2024/01/04 11:01:24;;;;;;;0.90;0.60;;;;;;;;;;5073221;28;20048;-84
2024/01/04 11:03:52;;;;;;;1.33;0.77;;;;;;;;;;5073647;28;20400;-83
2024/01/04 11:06:19;;;;;;;4.15;0.90;;;;;;;;;;5062587;28;20395;-82
2024/01/04 11:08:45;;;;;;;3.67;1.38;;;;;;;;;;5060011;28;20032;-81
2024/01/04 11:11:11;;;;;;;3.10;0.80;;;;;;;;;;5087161;28;20090;-80
2024/01/04 11:13:38;;;;;;;3.05;0.70;;;;;;;;;;5068658;28;20051;-82
2024/01/04 11:16:09;;;;;;;2.95;0.88;;;;;;;;;;5067644;28;20101;-82
2024/01/04 11:18:48;;;;;;;3.90;0.90;;;;;;;;;;5086084;28;20036;-83
2024/01/04 11:21:30;;;;;;;2.92;0.80;;;;;;;;;;5081676;28;20094;-83
2024/01/04 11:24:06;;;;;;;2.25;0.90;;;;;;;;;;5087874;28;20389;-83
2024/01/04 11:26:49;;;;;;;2.63;0.90;;;;;;;;;;5088473;28;20433;-83
2024/01/04 11:29:15;;;;;;;4.18;0.93;;;;;;;;;;5060039;28;20106;-83
2024/01/04 11:31:43;;;;;;;2.17;0.73;;;;;;;;;;5071685;28;20033;-83
2024/01/04 11:34:15;;;;;;;2.35;0.65;;;;;;;;;;5072701;28;20605;-83
2024/01/04 11:36:41;;;;;;;3.28;0.75;;;;;;;;;;5087382;28;20080;-84
2024/01/04 11:39:07;;;;;;;3.63;0.90;;;;;;;;;;5077379;28;20043;-84
2024/01/04 11:41:37;;;;;;;3.85;1.00;;;;;;;;;;5059727;28;20044;-82
2024/01/04 11:44:06;;;;;;;4.25;1.10;;;;;;;;;;5069662;28;20050;-83
2024/01/04 11:46:33;;;;;;;4.03;1.45;;;;;;;;;;5082396;28;20035;-82
2024/01/04 11:49:00;;;;;;;4.45;1.42;;;;;;;;;;5058876;28;20121;-81
2024/01/04 11:51:40;;;;;;;6.22;1.10;;;;;;;;;;5083969;28;20052;-82
2024/01/04 11:54:06;;;;;;;1.25;0.80;;;;;;;;;;5081992;28;20041;-82
2024/01/04 11:56:33;;;;;;;5.10;0.90;;;;;;;;;;5059962;28;20036;-82
2024/01/04 11:59:06;;;;;;;1.83;0.93;;;;;;;;;;5080357;28;20173;-82
2024/01/04 12:01:33;;;;;;;1.80;0.60;;;;;;;;;;5072760;28;20127;-82
2024/01/04 12:04:06;;;;;;;4.80;0.60;;;;;;;;;;5083041;28;20052;-82
2024/01/04 12:06:33;;;;;;;3.28;1.00;;;;;;;;;;5072076;28;20051;-82
2024/01/04 12:09:02;;;;;;;5.03;1.48;;;;;;;;;;5052191;28;20042;-82
2024/01/04 12:11:29;;;;;;;7.40;0.93;;;;;;;;;;5082401;28;20403;-82
2024/01/04 12:13:55;;;;;;;4.57;0.98;;;;;;;;;;5061809;28;20086;-81
2024/01/04 12:16:21;;;;;;;2.28;0.75;;;;;;;;;;5057214;28;20145;-82
2024/01/04 12:18:47;;;;;;;5.30;1.38;;;;;;;;;;5087159;28;20067;-82
2024/01/04 12:21:13;;;;;;;3.03;0.98;;;;;;;;;;5081631;28;20090;-82
2024/01/04 12:23:40;;;;;;;3.55;1.05;;;;;;;;;;5060684;28;20044;-81
2024/01/04 12:26:06;;;;;;;3.40;0.90;;;;;;;;;;5057252;28;20559;-82
2024/01/04 12:28:33;;;;;;;3.15;1.80;;;;;;;;;;5063867;28;20044;-82
2024/01/04 12:30:59;;;;;;;3.42;1.00;;;;;;;;;;5070883;28;20162;-83
2024/01/04 12:33:33;;;;;;;2.15;0.98;;;;;;;;;;5056379;28;20034;-83
2024/01/04 12:35:59;;;;;;;2.45;0.70;;;;;;;;;;5070582;28;20048;-83
2024/01/04 12:38:26;;;;;;;1.92;0.80;;;;;;;;;;5069545;28;20435;-83
2024/01/04 12:40:53;;;;;;;6.55;1.48;;;;;;;;;;5086391;28;20127;-80
2024/01/04 12:43:20;;;;;;;10.27;1.48;;;;;;;;;;5064343;28;20048;-81
2024/01/04 12:45:47;;;;;;;2.40;0.77;;;;;;;;;;5091999;28;20036;-83
2024/01/04 12:48:13;;;;;;;1.33;1.10;;;;;;;;;;5067945;28;20050;-82
2024/01/04 12:50:39;;;;;;;2.42;1.10;;;;;;;;;;5072831;28;20398;-81
2024/01/04 12:53:05;;;;;;;5.97;1.00;;;;;;;;;;5062287;28;20038;-83
2024/01/04 12:55:33;;;;;;;13.10;2.22;;;;;;;;;;5070946;28;20040;-82
2024/01/04 12:57:59;;;;;;;5.45;1.52;;;;;;;;;;5080473;28;20036;-81
2024/01/04 13:00:25;;;;;;;2.28;0.68;;;;;;;;;;5080902;28;20051;-84
2024/01/04 13:02:52;;;;;;;4.53;1.45;;;;;;;;;;5076036;28;20047;-83
2024/01/04 13:05:19;;;;;;;2.92;0.75;;;;;;;;;;5070413;28;20055;-83
2024/01/04 13:07:46;;;;;;;2.47;0.80;;;;;;;;;;5065653;28;20471;-82
2024/01/04 13:10:12;;;;;;;1.80;0.68;;;;;;;;;;5085973;28;20035;-84
2024/01/04 13:12:39;;;;;;;3.67;1.05;;;;;;;;;;5071804;28;20538;-82
2024/01/04 13:15:09;;;;;;;6.85;0.90;;;;;;;;;;5073902;28;20105;-83
2024/01/04 13:17:35;;;;;;;2.22;0.70;;;;;;;;;;5088669;28;20453;-83
2024/01/04 13:20:04;;;;;;;5.18;0.80;;;;;;;;;;5060596;28;20036;-83
2024/01/04 13:22:32;;;;;;;2.85;1.25;;;;;;;;;;5080767;28;20044;-83
2024/01/04 13:24:59;;;;;;;4.25;1.50;;;;;;;;;;5084681;28;20043;-83
2024/01/04 13:27:28;;;;;;;6.30;1.15;;;;;;;;;;5086378;28;20092;-83
2024/01/04 13:29:54;;;;;;;3.30;1.27;;;;;;;;;;5085187;28;20050;-81
2024/01/04 13:32:20;;;;;;;2.58;1.13;;;;;;;;;;5062534;28;20089;-82
2024/01/04 13:34:47;;;;;;;3.60;1.33;;;;;;;;;;5069226;28;20047;-82
2024/01/04 13:37:13;;;;;;;3.28;1.10;;;;;;;;;;5069583;28;20122;-82
2024/01/04 13:39:40;;;;;;;5.88;1.10;;;;;;;;;;5051666;28;20149;-81
2024/01/04 13:42:06;;;;;;;3.30;0.85;;;;;;;;;;5081912;28;20051;-82
2024/01/04 13:44:33;;;;;;;1.33;0.70;;;;;;;;;;5086703;28;20040;-82
2024/01/04 13:46:59;;;;;;;3.30;0.80;;;;;;;;;;5058743;28;20177;-81
2024/01/04 13:49:25;;;;;;;1.85;0.90;;;;;;;;;;5075303;28;20060;-80
2024/01/04 13:51:51;;;;;;;4.95;0.77;;;;;;;;;;5078406;28;20047;-84
2024/01/04 13:54:18;;;;;;;4.82;0.95;;;;;;;;;;5085675;28;20406;-82
2024/01/04 13:56:45;;;;;;;1.77;0.90;;;;;;;;;;5072860;28;20065;-82
2024/01/04 13:59:11;;;;;;;14.43;7.68;;;;;;;;;;5073260;28;20119;-83
2024/01/04 14:01:37;;;;;;;1.40;1.00;;;;;;;;;;5061133;28;20047;-82
2024/01/04 14:04:03;;;;;;;2.28;0.90;;;;;;;;;;5077559;28;20439;-83
2024/01/04 14:06:29;;;;;;;1.48;0.80;;;;;;;;;;5064656;28;20040;-84
2024/01/04 14:08:55;;;;;;;7.88;1.10;;;;;;;;;;5067809;28;20039;-83
2024/01/04 14:11:22;;;;;;;1.95;0.77;;;;;;;;;;5052441;28;20516;-82
2024/01/04 14:13:48;;;;;;;2.15;1.00;;;;;;;;;;5067891;28;20043;-80
2024/01/04 14:16:14;;;;;;;1.77;0.85;;;;;;;;;;5078266;28;20035;-81
2024/01/04 14:18:42;;;;;;;3.92;0.70;;;;;;;;;;5078904;28;20071;-82
2024/01/04 14:21:08;;;;;;;0.93;0.82;;;;;;;;;;5064563;28;20044;-80
2024/01/04 14:23:34;;;;;;;2.97;0.90;;;;;;;;;;5064340;28;20035;-82
2024/01/04 14:26:01;;;;;;;2.20;0.80;;;;;;;;;;5084485;28;20032;-82
2024/01/04 14:28:27;;;;;;;4.25;0.80;;;;;;;;;;5080253;28;20101;-82
2024/01/04 14:30:53;;;;;;;6.72;3.63;;;;;;;;;;5061573;28;20567;-81
2024/01/04 14:33:20;;;;;;;3.97;0.98;;;;;;;;;;5082643;28;20031;-81
2024/01/04 14:35:46;;;;;;;3.25;1.38;;;;;;;;;;5079161;28;20041;-79
2024/01/04 14:38:13;;;;;;;3.90;2.00;;;;;;;;;;5075581;28;20047;-84
2024/01/04 14:40:40;;;;;;;4.68;1.80;;;;;;;;;;5084606;28;20146;-81